sensor_id;sensor_type;location;lat;lon;timestamp;pressure;altitude;pressure_sealevel;temperature;humidity
65557;BME280;52200;53.490;14.376;2022-08-19T00:01:50;100959.69;;;20.65;100.00
65557;BME280;52200;53.490;14.376;2022-08-19T00:04:17;100945.78;;;20.80;100.00
65557;BME280;52200;53.490;14.376;2022-08-19T00:06:45;100949.81;;;20.97;100.00
65557;BME280;52200;53.490;14.376;2022-08-19T00:09:13;100949.94;;;20.96;100.00
65557;BME280;52200;53.490;14.376;2022-08-19T00:11:39;100948.66;;;21.01;100.00
65557;BME280;52200;53.490;14.376;2022-08-19T00:14:07;100960.75;;;20.75;100.00
65557;BME280;52200;53.490;14.376;2022-08-19T00:16:34;100959.22;;;20.45;100.00
65557;BME280;52200;53.490;14.376;2022-08-19T00:18:59;100964.63;;;20.68;100.00
65557;BME280;52200;53.490;14.376;2022-08-19T00:21:25;100969.28;;;20.62;100.00
65557;BME280;52200;53.490;14.376;2022-08-19T00:23:54;100969.16;;;20.51;100.00
65557;BME280;52200;53.490;14.376;2022-08-19T00:26:22;100967.44;;;20.65;100.00
65557;BME280;52200;53.490;14.376;2022-08-19T00:28:48;100966.25;;;20.83;100.00
65557;BME280;52200;53.490;14.376;2022-08-19T00:31:13;100964.69;;;20.93;100.00
65557;BME280;52200;53.490;14.376;2022-08-19T00:33:38;100965.94;;;21.01;100.00
65557;BME280;52200;53.490;14.376;2022-08-19T00:36:07;100954.56;;;21.03;100.00
65557;BME280;52200;53.490;14.376;2022-08-19T00:38:34;100956.63;;;21.11;100.00
65557;BME280;52200;53.490;14.376;2022-08-19T00:41:00;100963.88;;;21.06;100.00
65557;BME280;52200;53.490;14.376;2022-08-19T00:43:27;100953.97;;;21.13;100.00
65557;BME280;52200;53.490;14.376;2022-08-19T00:45:53;100954.16;;;21.22;100.00
65557;BME280;52200;53.490;14.376;2022-08-19T00:48:19;100949.69;;;20.99;100.00
65557;BME280;52200;53.490;14.376;2022-08-19T00:50:47;100959.00;;;20.88;100.00
65557;BME280;52200;53.490;14.376;2022-08-19T00:53:16;100947.34;;;20.96;100.00
65557;BME280;52200;53.490;14.376;2022-08-19T00:55:50;100953.75;;;21.03;100.00
65557;BME280;52200;53.490;14.376;2022-08-19T00:58:17;100948.38;;;20.40;100.00
65557;BME280;52200;53.490;14.376;2022-08-19T01:00:45;100936.16;;;20.69;100.00
65557;BME280;52200;53.490;14.376;2022-08-19T01:03:15;100932.56;;;20.72;100.00
65557;BME280;52200;53.490;14.376;2022-08-19T01:05:42;100921.69;;;20.92;100.00
65557;BME280;52200;53.490;14.376;2022-08-19T01:08:08;100912.19;;;21.06;100.00
65557;BME280;52200;53.490;14.376;2022-08-19T01:10:40;100913.22;;;21.03;100.00
65557;BME280;52200;53.490;14.376;2022-08-19T01:13:07;100903.31;;;21.10;100.00
65557;BME280;52200;53.490;14.376;2022-08-19T01:15:42;100897.75;;;21.16;100.00
65557;BME280;52200;53.490;14.376;2022-08-19T01:18:11;100888.63;;;21.10;100.00
65557;BME280;52200;53.490;14.376;2022-08-19T01:20:39;100882.84;;;21.07;100.00
65557;BME280;52200;53.490;14.376;2022-08-19T01:23:05;100877.91;;;21.04;100.00
65557;BME280;52200;53.490;14.376;2022-08-19T01:25:35;100879.97;;;21.12;100.00
65557;BME280;52200;53.490;14.376;2022-08-19T01:28:02;100881.09;;;21.20;100.00
65557;BME280;52200;53.490;14.376;2022-08-19T01:30:32;100879.34;;;21.08;100.00
65557;BME280;52200;53.490;14.376;2022-08-19T01:32:57;100878.50;;;21.07;100.00
65557;BME280;52200;53.490;14.376;2022-08-19T01:35:26;100873.94;;;21.11;100.00
65557;BME280;52200;53.490;14.376;2022-08-19T01:37:57;100866.19;;;21.24;100.00
65557;BME280;52200;53.490;14.376;2022-08-19T01:40:26;100868.47;;;21.29;100.00
65557;BME280;52200;53.490;14.376;2022-08-19T01:42:53;100872.75;;;21.04;100.00
65557;BME280;52200;53.490;14.376;2022-08-19T01:45:20;100869.13;;;21.06;100.00
65557;BME280;52200;53.490;14.376;2022-08-19T01:47:47;100866.13;;;21.00;100.00
65557;BME280;52200;53.490;14.376;2022-08-19T01:50:12;100868.44;;;20.91;100.00
65557;BME280;52200;53.490;14.376;2022-08-19T01:52:42;100869.75;;;21.10;100.00
65557;BME280;52200;53.490;14.376;2022-08-19T01:55:12;100863.75;;;20.97;100.00
65557;BME280;52200;53.490;14.376;2022-08-19T01:57:39;100863.69;;;20.85;100.00
65557;BME280;52200;53.490;14.376;2022-08-19T02:00:09;100861.19;;;20.84;100.00
65557;BME280;52200;53.490;14.376;2022-08-19T02:02:35;100861.19;;;20.84;100.00
65557;BME280;52200;53.490;14.376;2022-08-19T02:05:01;100865.41;;;20.85;100.00
65557;BME280;52200;53.490;14.376;2022-08-19T02:07:26;100862.63;;;20.88;100.00
65557;BME280;52200;53.490;14.376;2022-08-19T02:09:53;100866.66;;;20.92;100.00
65557;BME280;52200;53.490;14.376;2022-08-19T02:12:20;100860.06;;;20.88;100.00
65557;BME280;52200;53.490;14.376;2022-08-19T02:14:46;100860.25;;;20.85;100.00
65557;BME280;52200;53.490;14.376;2022-08-19T02:17:11;100856.81;;;20.97;100.00
65557;BME280;52200;53.490;14.376;2022-08-19T02:19:37;100866.53;;;20.68;100.00
65557;BME280;52200;53.490;14.376;2022-08-19T02:22:02;100865.50;;;20.57;100.00
65557;BME280;52200;53.490;14.376;2022-08-19T02:24:28;100867.78;;;20.62;100.00
65557;BME280;52200;53.490;14.376;2022-08-19T02:26:53;100861.38;;;20.42;100.00
65557;BME280;52200;53.490;14.376;2022-08-19T02:29:19;100864.88;;;20.41;100.00
65557;BME280;52200;53.490;14.376;2022-08-19T02:31:45;100872.00;;;20.50;100.00
65557;BME280;52200;53.490;14.376;2022-08-19T02:34:10;100865.16;;;20.49;100.00
65557;BME280;52200;53.490;14.376;2022-08-19T02:36:35;100866.31;;;20.58;100.00
65557;BME280;52200;53.490;14.376;2022-08-19T02:39:01;100867.34;;;20.55;100.00
65557;BME280;52200;53.490;14.376;2022-08-19T02:41:32;100865.78;;;20.53;100.00
65557;BME280;52200;53.490;14.376;2022-08-19T02:43:59;100876.66;;;20.71;100.00
65557;BME280;52200;53.490;14.376;2022-08-19T02:46:28;100860.88;;;20.75;100.00
65557;BME280;52200;53.490;14.376;2022-08-19T02:49:00;100870.59;;;20.72;100.00
65557;BME280;52200;53.490;14.376;2022-08-19T02:51:36;100865.81;;;20.66;100.00
65557;BME280;52200;53.490;14.376;2022-08-19T02:54:02;100869.44;;;20.63;100.00
65557;BME280;52200;53.490;14.376;2022-08-19T02:56:28;100872.69;;;20.39;100.00
65557;BME280;52200;53.490;14.376;2022-08-19T02:58:56;100878.69;;;20.53;100.00
65557;BME280;52200;53.490;14.376;2022-08-19T03:01:27;100880.66;;;20.49;100.00
65557;BME280;52200;53.490;14.376;2022-08-19T03:03:54;100877.56;;;20.31;100.00
65557;BME280;52200;53.490;14.376;2022-08-19T03:06:21;100881.44;;;20.24;100.00
65557;BME280;52200;53.490;14.376;2022-08-19T03:08:47;100876.59;;;20.19;100.00
65557;BME280;52200;53.490;14.376;2022-08-19T03:11:23;100882.16;;;20.13;100.00
65557;BME280;52200;53.490;14.376;2022-08-19T03:13:50;100881.34;;;20.25;100.00
65557;BME280;52200;53.490;14.376;2022-08-19T03:16:17;100881.44;;;20.24;100.00
65557;BME280;52200;53.490;14.376;2022-08-19T03:18:43;100881.97;;;20.16;100.00
65557;BME280;52200;53.490;14.376;2022-08-19T03:21:08;100880.59;;;20.10;100.00
65557;BME280;52200;53.490;14.376;2022-08-19T03:23:34;100882.78;;;20.17;100.00
65557;BME280;52200;53.490;14.376;2022-08-19T03:26:04;100882.53;;;20.07;100.00
65557;BME280;52200;53.490;14.376;2022-08-19T03:28:30;100885.25;;;20.18;100.00
65557;BME280;52200;53.490;14.376;2022-08-19T03:31:00;100888.16;;;20.26;100.00
65557;BME280;52200;53.490;14.376;2022-08-19T03:33:27;100882.75;;;20.04;100.00
65557;BME280;52200;53.490;14.376;2022-08-19T03:38:29;100897.69;;;19.99;100.00
65557;BME280;52200;53.490;14.376;2022-08-19T03:40:54;100900.09;;;19.87;100.00
65557;BME280;52200;53.490;14.376;2022-08-19T03:43:19;100907.47;;;19.93;100.00
65557;BME280;52200;53.490;14.376;2022-08-19T03:45:45;100908.47;;;19.91;100.00
65557;BME280;52200;53.490;14.376;2022-08-19T03:48:10;100909.31;;;19.91;100.00
65557;BME280;52200;53.490;14.376;2022-08-19T03:50:39;100916.34;;;20.02;100.00
65557;BME280;52200;53.490;14.376;2022-08-19T03:53:06;100907.06;;;20.00;100.00
65557;BME280;52200;53.490;14.376;2022-08-19T03:55:32;100895.69;;;19.89;100.00
65557;BME280;52200;53.490;14.376;2022-08-19T03:57:57;100910.38;;;20.02;100.00
65557;BME280;52200;53.490;14.376;2022-08-19T04:00:23;100922.16;;;20.06;100.00
65557;BME280;52200;53.490;14.376;2022-08-19T04:02:49;100925.91;;;19.87;100.00
65557;BME280;52200;53.490;14.376;2022-08-19T04:05:14;100937.22;;;20.12;100.00
65557;BME280;52200;53.490;14.376;2022-08-19T04:07:40;100952.13;;;19.79;100.00
65557;BME280;52200;53.490;14.376;2022-08-19T04:10:05;100953.63;;;19.84;100.00
65557;BME280;52200;53.490;14.376;2022-08-19T04:12:31;100933.56;;;19.74;100.00
65557;BME280;52200;53.490;14.376;2022-08-19T04:14:57;100932.00;;;19.86;100.00
65557;BME280;52200;53.490;14.376;2022-08-19T04:17:23;100927.03;;;20.10;100.00
65557;BME280;52200;53.490;14.376;2022-08-19T04:19:49;100940.56;;;20.14;100.00
65557;BME280;52200;53.490;14.376;2022-08-19T04:22:14;100949.22;;;20.13;100.00
65557;BME280;52200;53.490;14.376;2022-08-19T04:24:39;100951.63;;;20.29;100.00
65557;BME280;52200;53.490;14.376;2022-08-19T04:27:05;100953.81;;;20.22;100.00
65557;BME280;52200;53.490;14.376;2022-08-19T04:29:31;100946.38;;;20.30;100.00
65557;BME280;52200;53.490;14.376;2022-08-19T04:31:57;100948.31;;;20.54;100.00
65557;BME280;52200;53.490;14.376;2022-08-19T04:34:26;100965.00;;;20.49;100.00
65557;BME280;52200;53.490;14.376;2022-08-19T04:36:54;100959.47;;;20.68;100.00
65557;BME280;52200;53.490;14.376;2022-08-19T04:39:23;100953.22;;;20.72;100.00
65557;BME280;52200;53.490;14.376;2022-08-19T04:42:09;100953.75;;;21.03;100.00
65557;BME280;52200;53.490;14.376;2022-08-19T04:44:53;100971.13;;;21.14;100.00
65557;BME280;52200;53.490;14.376;2022-08-19T04:47:19;100970.69;;;20.94;100.00
65557;BME280;52200;53.490;14.376;2022-08-19T04:49:44;100964.06;;;20.77;100.00
65557;BME280;52200;53.490;14.376;2022-08-19T04:52:10;100957.88;;;20.92;100.00
65557;BME280;52200;53.490;14.376;2022-08-19T04:54:35;100956.91;;;21.45;100.00
65557;BME280;52200;53.490;14.376;2022-08-19T04:57:00;100962.28;;;21.55;99.59
65557;BME280;52200;53.490;14.376;2022-08-19T04:59:26;100973.78;;;21.38;99.62
65557;BME280;52200;53.490;14.376;2022-08-19T05:01:51;100975.50;;;21.76;98.09
65557;BME280;52200;53.490;14.376;2022-08-19T05:04:20;100973.09;;;21.86;96.59
65557;BME280;52200;53.490;14.376;2022-08-19T05:06:47;100973.75;;;21.64;98.12
65557;BME280;52200;53.490;14.376;2022-08-19T05:09:14;100969.03;;;21.57;96.91
65557;BME280;52200;53.490;14.376;2022-08-19T05:11:40;100969.56;;;21.87;96.39
65557;BME280;52200;53.490;14.376;2022-08-19T05:14:06;100962.56;;;21.76;96.53
65557;BME280;52200;53.490;14.376;2022-08-19T05:16:32;100958.13;;;21.78;97.43
65557;BME280;52200;53.490;14.376;2022-08-19T05:18:58;100956.13;;;21.82;97.50
65557;BME280;52200;53.490;14.376;2022-08-19T05:21:42;100954.44;;;21.56;98.35
65557;BME280;52200;53.490;14.376;2022-08-19T05:24:27;100964.47;;;21.85;98.64
65557;BME280;52200;53.490;14.376;2022-08-19T05:26:53;100975.72;;;21.97;95.33
65557;BME280;52200;53.490;14.376;2022-08-19T05:29:23;100974.63;;;21.88;97.49
65557;BME280;52200;53.490;14.376;2022-08-19T05:31:49;100961.47;;;22.16;95.63
65557;BME280;52200;53.490;14.376;2022-08-19T05:34:16;100959.50;;;22.19;95.72
65557;BME280;52200;53.490;14.376;2022-08-19T05:36:44;100964.38;;;22.11;95.25
65557;BME280;52200;53.490;14.376;2022-08-19T05:39:13;100965.63;;;21.94;95.63
65557;BME280;52200;53.490;14.376;2022-08-19T05:41:45;100970.00;;;21.81;96.35
65557;BME280;52200;53.490;14.376;2022-08-19T05:44:11;100957.13;;;21.42;99.05
65557;BME280;52200;53.490;14.376;2022-08-19T05:46:38;100954.13;;;21.35;100.00
65557;BME280;52200;53.490;14.376;2022-08-19T05:49:05;100959.00;;;21.40;100.00
65557;BME280;52200;53.490;14.376;2022-08-19T05:51:32;100970.25;;;21.39;100.00
65557;BME280;52200;53.490;14.376;2022-08-19T05:53:59;100968.31;;;21.17;100.00
65557;BME280;52200;53.490;14.376;2022-08-19T05:56:25;100969.66;;;21.22;100.00
65557;BME280;52200;53.490;14.376;2022-08-19T05:58:51;100972.97;;;21.24;100.00
65557;BME280;52200;53.490;14.376;2022-08-19T06:01:18;100972.47;;;21.32;100.00
65557;BME280;52200;53.490;14.376;2022-08-19T06:03:44;100979.59;;;21.29;100.00
65557;BME280;52200;53.490;14.376;2022-08-19T06:06:12;100985.97;;;21.36;100.00
65557;BME280;52200;53.490;14.376;2022-08-19T06:08:38;100974.91;;;21.21;100.00
65557;BME280;52200;53.490;14.376;2022-08-19T06:11:24;100973.38;;;21.18;100.00
65557;BME280;52200;53.490;14.376;2022-08-19T06:13:53;100963.53;;;21.23;100.00
65557;BME280;52200;53.490;14.376;2022-08-19T06:16:19;100951.03;;;21.17;100.00
65557;BME280;52200;53.490;14.376;2022-08-19T06:18:48;100953.13;;;21.12;100.00
65557;BME280;52200;53.490;14.376;2022-08-19T06:21:17;100944.03;;;21.19;100.00
65557;BME280;52200;53.490;14.376;2022-08-19T06:23:44;100945.47;;;21.10;100.00
65557;BME280;52200;53.490;14.376;2022-08-19T06:26:14;100943.50;;;21.14;100.00
65557;BME280;52200;53.490;14.376;2022-08-19T06:28:39;100930.47;;;21.29;100.00
65557;BME280;52200;53.490;14.376;2022-08-19T06:31:21;100924.59;;;21.26;100.00
65557;BME280;52200;53.490;14.376;2022-08-19T06:33:47;100937.19;;;21.18;100.00
65557;BME280;52200;53.490;14.376;2022-08-19T06:36:31;100935.75;;;21.14;100.00
65557;BME280;52200;53.490;14.376;2022-08-19T06:39:01;100933.09;;;21.03;100.00
65557;BME280;52200;53.490;14.376;2022-08-19T06:41:28;100930.72;;;21.13;100.00
65557;BME280;52200;53.490;14.376;2022-08-19T06:43:55;100940.81;;;21.29;100.00
65557;BME280;52200;53.490;14.376;2022-08-19T06:46:21;100938.50;;;21.37;100.00
65557;BME280;52200;53.490;14.376;2022-08-19T06:48:47;100943.50;;;21.40;100.00
65557;BME280;52200;53.490;14.376;2022-08-19T06:51:15;100951.44;;;21.50;100.00
65557;BME280;52200;53.490;14.376;2022-08-19T06:53:44;100954.44;;;21.56;100.00
65557;BME280;52200;53.490;14.376;2022-08-19T06:56:12;100959.81;;;21.53;100.00
65557;BME280;52200;53.490;14.376;2022-08-19T06:58:37;100968.59;;;21.64;100.00
65557;BME280;52200;53.490;14.376;2022-08-19T07:01:04;100965.34;;;21.73;100.00
65557;BME280;52200;53.490;14.376;2022-08-19T07:03:31;100971.66;;;21.82;100.00
65557;BME280;52200;53.490;14.376;2022-08-19T07:06:06;100978.16;;;21.87;100.00
65557;BME280;52200;53.490;14.376;2022-08-19T07:08:33;100983.25;;;21.76;100.00
65557;BME280;52200;53.490;14.376;2022-08-19T07:10:59;100984.97;;;21.88;99.86
65557;BME280;52200;53.490;14.376;2022-08-19T07:13:25;100977.50;;;21.97;99.31
65557;BME280;52200;53.490;14.376;2022-08-19T07:15:51;100963.13;;;21.93;99.55
65557;BME280;52200;53.490;14.376;2022-08-19T07:18:18;100947.59;;;21.68;99.99
65557;BME280;52200;53.490;14.376;2022-08-19T07:20:43;100932.00;;;21.44;100.00
65557;BME280;52200;53.490;14.376;2022-08-19T07:23:09;100916.94;;;21.12;100.00
65557;BME280;52200;53.490;14.376;2022-08-19T07:25:36;100914.78;;;21.06;100.00
65557;BME280;52200;53.490;14.376;2022-08-19T07:28:02;100906.09;;;20.81;100.00
65557;BME280;52200;53.490;14.376;2022-08-19T07:30:28;100905.59;;;20.76;100.00
65557;BME280;52200;53.490;14.376;2022-08-19T07:32:54;100908.22;;;20.61;100.00
65557;BME280;52200;53.490;14.376;2022-08-19T07:35:19;100899.56;;;20.62;100.00
65557;BME280;52200;53.490;14.376;2022-08-19T07:37:45;100900.81;;;20.70;100.00
65557;BME280;52200;53.490;14.376;2022-08-19T07:40:12;100891.13;;;20.73;100.00
65557;BME280;52200;53.490;14.376;2022-08-19T07:42:38;100897.84;;;20.76;100.00
65557;BME280;52200;53.490;14.376;2022-08-19T07:45:05;100895.91;;;20.80;100.00
65557;BME280;52200;53.490;14.376;2022-08-19T07:47:31;100896.50;;;20.83;100.00
65557;BME280;52200;53.490;14.376;2022-08-19T07:49:56;100907.88;;;21.06;100.00
65557;BME280;52200;53.490;14.376;2022-08-19T07:52:22;100916.44;;;21.20;100.00
65557;BME280;52200;53.490;14.376;2022-08-19T07:54:48;100917.38;;;21.06;100.00
65557;BME280;52200;53.490;14.376;2022-08-19T07:57:15;100916.19;;;21.36;100.00
65557;BME280;52200;53.490;14.376;2022-08-19T07:59:41;100919.59;;;21.36;100.00
65557;BME280;52200;53.490;14.376;2022-08-19T08:02:08;100915.06;;;21.40;100.00
65557;BME280;52200;53.490;14.376;2022-08-19T08:04:34;100904.41;;;21.32;100.00
65557;BME280;52200;53.490;14.376;2022-08-19T08:07:25;100899.34;;;21.30;100.00
65557;BME280;52200;53.490;14.376;2022-08-19T08:10:09;100900.41;;;21.28;100.00
65557;BME280;52200;53.490;14.376;2022-08-19T08:12:38;100912.41;;;21.29;100.00
65557;BME280;52200;53.490;14.376;2022-08-19T08:15:14;100927.41;;;21.61;100.00
65557;BME280;52200;53.490;14.376;2022-08-19T08:17:44;100913.16;;;21.55;100.00
65557;BME280;52200;53.490;14.376;2022-08-19T08:20:10;100916.97;;;21.49;100.00
65557;BME280;52200;53.490;14.376;2022-08-19T08:22:36;100930.41;;;21.54;100.00
65557;BME280;52200;53.490;14.376;2022-08-19T08:25:23;100938.41;;;21.51;100.00
65557;BME280;52200;53.490;14.376;2022-08-19T08:27:49;100939.16;;;21.78;100.00
65557;BME280;52200;53.490;14.376;2022-08-19T08:30:20;100931.28;;;21.79;100.00
65557;BME280;52200;53.490;14.376;2022-08-19T08:32:47;100915.47;;;21.60;100.00
65557;BME280;52200;53.490;14.376;2022-08-19T08:35:15;100902.81;;;21.42;100.00
65557;BME280;52200;53.490;14.376;2022-08-19T08:37:42;100896.16;;;21.26;100.00
65557;BME280;52200;53.490;14.376;2022-08-19T08:40:19;100883.44;;;21.23;100.00
65557;BME280;52200;53.490;14.376;2022-08-19T08:43:03;100885.81;;;21.26;100.00
65557;BME280;52200;53.490;14.376;2022-08-19T08:45:33;100900.91;;;21.33;100.00
65557;BME280;52200;53.490;14.376;2022-08-19T08:48:04;100905.34;;;21.31;100.00
65557;BME280;52200;53.490;14.376;2022-08-19T08:50:37;100910.56;;;21.55;100.00
65557;BME280;52200;53.490;14.376;2022-08-19T08:53:06;100925.69;;;21.61;100.00
65557;BME280;52200;53.490;14.376;2022-08-19T08:55:33;100933.75;;;21.56;100.00
65557;BME280;52200;53.490;14.376;2022-08-19T08:58:09;100934.16;;;21.87;100.00
65557;BME280;52200;53.490;14.376;2022-08-19T09:00:44;100922.28;;;22.09;100.00
65557;BME280;52200;53.490;14.376;2022-08-19T09:03:17;100927.03;;;22.15;100.00
65557;BME280;52200;53.490;14.376;2022-08-19T09:05:59;100919.53;;;21.99;100.00
65557;BME280;52200;53.490;14.376;2022-08-19T09:08:51;100925.56;;;21.63;100.00
65557;BME280;52200;53.490;14.376;2022-08-19T09:17:12;100932.50;;;21.86;100.00
65557;BME280;52200;53.490;14.376;2022-08-19T09:22:18;100910.84;;;21.76;100.00
65557;BME280;52200;53.490;14.376;2022-08-19T09:24:47;100898.19;;;21.84;100.00
65557;BME280;52200;53.490;14.376;2022-08-19T09:27:13;100893.38;;;21.91;100.00
65557;BME280;52200;53.490;14.376;2022-08-19T09:29:39;100900.88;;;22.07;100.00
65557;BME280;52200;53.490;14.376;2022-08-19T09:32:04;100908.53;;;22.44;99.88
65557;BME280;52200;53.490;14.376;2022-08-19T09:34:31;100918.72;;;22.81;97.96
65557;BME280;52200;53.490;14.376;2022-08-19T09:36:57;100922.34;;;22.56;97.50
65557;BME280;52200;53.490;14.376;2022-08-19T09:39:24;100910.09;;;22.69;97.61
65557;BME280;52200;53.490;14.376;2022-08-19T09:41:49;100897.50;;;22.53;97.70
65557;BME280;52200;53.490;14.376;2022-08-19T09:44:15;100882.22;;;22.26;99.67
65557;BME280;52200;53.490;14.376;2022-08-19T09:46:41;100863.00;;;22.17;100.00
65557;BME280;52200;53.490;14.376;2022-08-19T09:49:06;100855.50;;;22.26;100.00
65557;BME280;52200;53.490;14.376;2022-08-19T09:51:32;100864.22;;;22.25;100.00
65557;BME280;52200;53.490;14.376;2022-08-19T09:54:00;100864.19;;;22.60;100.00
65557;BME280;52200;53.490;14.376;2022-08-19T09:56:27;100867.97;;;22.56;100.00
65557;BME280;52200;53.490;14.376;2022-08-19T09:58:52;100869.50;;;22.47;100.00
65557;BME280;52200;53.490;14.376;2022-08-19T10:01:21;100872.41;;;22.43;100.00
65557;BME280;52200;53.490;14.376;2022-08-19T10:03:50;100881.59;;;22.58;100.00
65557;BME280;52200;53.490;14.376;2022-08-19T10:06:17;100878.00;;;22.95;99.72
65557;BME280;52200;53.490;14.376;2022-08-19T10:08:44;100887.56;;;23.17;97.48
65557;BME280;52200;53.490;14.376;2022-08-19T10:11:09;100891.66;;;23.86;96.35
65557;BME280;52200;53.490;14.376;2022-08-19T10:13:35;100917.47;;;24.41;92.42
65557;BME280;52200;53.490;14.376;2022-08-19T10:16:07;100931.59;;;24.49;92.15
65557;BME280;52200;53.490;14.376;2022-08-19T10:18:34;100958.16;;;24.73;90.05
65557;BME280;52200;53.490;14.376;2022-08-19T10:21:16;100970.59;;;24.70;89.98
65557;BME280;52200;53.490;14.376;2022-08-19T10:23:44;100980.97;;;24.49;91.00
65557;BME280;52200;53.490;14.376;2022-08-19T10:26:11;100978.78;;;24.00;92.85
65557;BME280;52200;53.490;14.376;2022-08-19T10:28:37;100971.41;;;23.73;94.27
65557;BME280;52200;53.490;14.376;2022-08-19T10:31:11;100955.97;;;23.60;94.45
65557;BME280;52200;53.490;14.376;2022-08-19T10:33:38;100945.09;;;23.77;94.03
65557;BME280;52200;53.490;14.376;2022-08-19T10:36:06;100929.56;;;23.55;95.59
65557;BME280;52200;53.490;14.376;2022-08-19T10:38:32;100925.56;;;23.50;95.44
65557;BME280;52200;53.490;14.376;2022-08-19T10:41:07;100909.94;;;23.29;97.43
65557;BME280;52200;53.490;14.376;2022-08-19T10:43:33;100884.59;;;22.88;100.00
65557;BME280;52200;53.490;14.376;2022-08-19T10:46:01;100852.09;;;22.83;100.00
65557;BME280;52200;53.490;14.376;2022-08-19T10:48:26;100834.44;;;22.77;100.00
65557;BME280;52200;53.490;14.376;2022-08-19T10:50:51;100827.59;;;22.65;100.00
65557;BME280;52200;53.490;14.376;2022-08-19T10:53:50;100844.88;;;22.64;100.00
65557;BME280;52200;53.490;14.376;2022-08-19T10:56:16;100842.19;;;22.77;100.00
65557;BME280;52200;53.490;14.376;2022-08-19T10:58:59;100845.59;;;22.78;100.00
65557;BME280;52200;53.490;14.376;2022-08-19T11:01:26;100841.47;;;22.86;100.00
65557;BME280;52200;53.490;14.376;2022-08-19T11:03:52;100837.94;;;22.99;100.00
65557;BME280;52200;53.490;14.376;2022-08-19T11:06:18;100838.41;;;23.15;100.00
65557;BME280;52200;53.490;14.376;2022-08-19T11:08:44;100831.34;;;23.17;100.00
65557;BME280;52200;53.490;14.376;2022-08-19T11:11:11;100830.16;;;23.33;100.00
65557;BME280;52200;53.490;14.376;2022-08-19T11:13:38;100816.97;;;23.13;100.00
65557;BME280;52200;53.490;14.376;2022-08-19T11:16:11;100819.44;;;23.03;100.00
65557;BME280;52200;53.490;14.376;2022-08-19T11:18:41;100833.22;;;23.04;100.00
65557;BME280;52200;53.490;14.376;2022-08-19T11:23:40;100812.22;;;23.30;100.00
65557;BME280;52200;53.490;14.376;2022-08-19T11:26:06;100806.59;;;23.25;100.00
65557;BME280;52200;53.490;14.376;2022-08-19T11:28:31;100808.25;;;23.26;100.00
65557;BME280;52200;53.490;14.376;2022-08-19T11:30:57;100809.59;;;23.53;99.42
65557;BME280;52200;53.490;14.376;2022-08-19T11:33:22;100814.31;;;23.69;97.65
65557;BME280;52200;53.490;14.376;2022-08-19T11:35:47;100822.31;;;23.77;97.28
65557;BME280;52200;53.490;14.376;2022-08-19T11:38:14;100827.25;;;23.59;97.07
65557;BME280;52200;53.490;14.376;2022-08-19T11:40:39;100828.75;;;23.61;97.91
65557;BME280;52200;53.490;14.376;2022-08-19T11:43:07;100821.56;;;23.97;97.33
65557;BME280;52200;53.490;14.376;2022-08-19T11:45:33;100824.00;;;24.20;95.83
65557;BME280;52200;53.490;14.376;2022-08-19T11:47:59;100832.56;;;24.32;94.40
65557;BME280;52200;53.490;14.376;2022-08-19T11:50:24;100832.25;;;24.56;93.83
65557;BME280;52200;53.490;14.376;2022-08-19T11:52:53;100838.34;;;25.07;92.02
65557;BME280;52200;53.490;14.376;2022-08-19T11:55:19;100845.69;;;25.02;90.70
65557;BME280;52200;53.490;14.376;2022-08-19T11:57:45;100844.91;;;25.02;90.50
65557;BME280;52200;53.490;14.376;2022-08-19T12:00:11;100858.03;;;25.51;89.58
65557;BME280;52200;53.490;14.376;2022-08-19T12:02:38;100868.00;;;25.65;88.37
65557;BME280;52200;53.490;14.376;2022-08-19T12:05:04;100876.25;;;26.10;86.86
65557;BME280;52200;53.490;14.376;2022-08-19T12:07:30;100875.69;;;25.96;86.37
65557;BME280;52200;53.490;14.376;2022-08-19T12:09:59;100864.47;;;25.76;87.34
65557;BME280;52200;53.490;14.376;2022-08-19T12:12:26;100875.34;;;25.31;87.44
65557;BME280;52200;53.490;14.376;2022-08-19T12:14:52;100870.34;;;25.58;86.85
65557;BME280;52200;53.490;14.376;2022-08-19T12:17:25;100871.06;;;25.70;86.65
65557;BME280;52200;53.490;14.376;2022-08-19T12:19:51;100872.69;;;25.81;86.94
65557;BME280;52200;53.490;14.376;2022-08-19T12:22:17;100888.84;;;26.24;87.23
65557;BME280;52200;53.490;14.376;2022-08-19T12:24:43;100887.50;;;26.67;85.33
65557;BME280;52200;53.490;14.376;2022-08-19T12:27:08;100897.91;;;26.77;84.69
65557;BME280;52200;53.490;14.376;2022-08-19T12:29:34;100893.00;;;27.02;82.24
65557;BME280;52200;53.490;14.376;2022-08-19T12:31:59;100892.16;;;27.29;82.03
65557;BME280;52200;53.490;14.376;2022-08-19T12:34:28;100887.06;;;26.82;82.72
65557;BME280;52200;53.490;14.376;2022-08-19T12:37:00;100883.16;;;26.96;83.13
65557;BME280;52200;53.490;14.376;2022-08-19T12:39:26;100885.97;;;27.40;81.27
65557;BME280;52200;53.490;14.376;2022-08-19T12:41:52;100881.34;;;27.24;81.07
65557;BME280;52200;53.490;14.376;2022-08-19T12:44:18;100867.19;;;26.81;81.61
65557;BME280;52200;53.490;14.376;2022-08-19T12:46:44;100870.78;;;26.13;81.41
65557;BME280;52200;53.490;14.376;2022-08-19T12:49:09;100876.44;;;26.46;82.55
65557;BME280;52200;53.490;14.376;2022-08-19T12:51:35;100878.25;;;26.83;82.24